createdAt,value
2018-11-10T00:00:40.039Z,42.20
2018-11-10T00:03:12.689Z,43.20
2018-11-10T00:05:44.801Z,43.60
2018-11-10T00:08:16.859Z,43.80
2018-11-10T00:10:49.414Z,43.50
2018-11-10T00:13:21.650Z,43.90
2018-11-10T00:15:54.206Z,44.30
2018-11-10T00:18:26.513Z,44.90
2018-11-10T00:20:59.090Z,45.50
2018-11-10T00:23:31.667Z,44.50
2018-11-10T00:26:04.370Z,44.70
2018-11-10T00:28:36.809Z,44.60
2018-11-10T00:31:09.481Z,45.90
2018-11-10T00:33:41.995Z,45.70
2018-11-10T00:36:14.603Z,46.30
2018-11-10T00:38:47.136Z,46.00
2018-11-10T00:41:19.632Z,46.50
2018-11-10T00:43:52.256Z,47.20
2018-11-10T00:46:24.589Z,47.20
2018-11-10T00:48:57.090Z,46.50
2018-11-10T00:51:29.701Z,46.20
2018-11-10T00:54:02.133Z,45.50
2018-11-10T00:56:34.469Z,44.60
2018-11-10T00:59:06.999Z,44.60
2018-11-10T01:01:39.315Z,43.90
2018-11-10T01:04:12.147Z,44.20
2018-11-10T01:06:44.892Z,45.60
2018-11-10T01:09:17.330Z,43.30
2018-11-10T01:11:49.722Z,44.20
2018-11-10T01:14:21.950Z,42.90
2018-11-10T01:16:54.206Z,42.30
2018-11-10T01:19:26.747Z,44.10
2018-11-10T01:21:59.085Z,44.90
2018-11-10T01:24:31.456Z,44.20
2018-11-10T01:27:03.967Z,43.40
2018-11-10T01:29:36.309Z,43.00
2018-11-10T01:32:08.787Z,45.10
2018-11-10T01:34:41.234Z,44.70
2018-11-10T01:37:13.748Z,45.00
2018-11-10T01:39:45.882Z,45.10
2018-11-10T01:42:18.260Z,44.50
2018-11-10T01:44:50.326Z,44.40
2018-11-10T01:47:23.102Z,45.00
2018-11-10T01:49:55.872Z,45.00
2018-11-10T01:52:28.279Z,45.50
2018-11-10T01:55:00.495Z,45.70
2018-11-10T01:57:32.987Z,46.00
2018-11-10T02:00:05.760Z,47.00
2018-11-10T02:02:38.035Z,46.90
2018-11-10T02:05:10.412Z,47.50
2018-11-10T02:07:42.750Z,46.90
2018-11-10T02:10:15.338Z,47.70
2018-11-10T02:12:47.760Z,48.10
2018-11-10T02:15:19.830Z,47.60
2018-11-10T02:17:52.028Z,47.50
2018-11-10T02:20:24.172Z,48.40
2018-11-10T02:22:56.733Z,48.90
2018-11-10T02:25:29.376Z,48.90
2018-11-10T02:28:02.028Z,48.90
2018-11-10T02:30:34.428Z,49.50
2018-11-10T02:33:07.025Z,50.40
2018-11-10T02:35:39.471Z,50.00
2018-11-10T02:38:12.255Z,49.20
2018-11-10T02:40:44.334Z,50.10
2018-11-10T02:43:16.765Z,50.50
2018-11-10T02:45:48.907Z,50.80
2018-11-10T02:48:21.468Z,50.30
2018-11-10T02:50:54.269Z,50.70
2018-11-10T02:53:26.614Z,50.80
2018-11-10T02:55:59.205Z,52.90
2018-11-10T02:58:31.399Z,51.40
2018-11-10T03:01:03.724Z,51.50
2018-11-10T03:03:35.770Z,52.60
2018-11-10T03:06:07.961Z,52.40
2018-11-10T03:08:41.142Z,51.60
2018-11-10T03:11:13.482Z,51.30
2018-11-10T03:13:45.827Z,50.80
2018-11-10T03:16:18.168Z,51.00
2018-11-10T03:18:50.422Z,53.10
2018-11-10T03:21:22.912Z,51.80
2018-11-10T03:23:55.307Z,53.10
2018-11-10T03:26:27.426Z,53.20
2018-11-10T03:28:59.874Z,53.90
2018-11-10T03:31:32.622Z,53.50
2018-11-10T03:34:04.734Z,54.30
2018-11-10T03:36:37.226Z,54.90
2018-11-10T03:39:13.744Z,54.70
2018-11-10T03:41:46.556Z,53.40
2018-11-10T03:44:18.987Z,55.40
2018-11-10T03:46:51.501Z,54.60
2018-11-10T03:49:23.779Z,55.30
2018-11-10T03:51:56.021Z,57.60
2018-11-10T03:54:28.860Z,55.60
2018-11-10T03:57:01.540Z,54.90
2018-11-10T03:59:34.095Z,53.40
2018-11-10T04:02:06.749Z,52.80
2018-11-10T04:04:39.993Z,51.70
2018-11-10T04:07:12.584Z,50.50
2018-11-10T04:09:44.983Z,54.40
2018-11-10T04:12:17.497Z,56.00
2018-11-10T04:14:49.682Z,54.90
2018-11-10T04:17:22.227Z,51.20
2018-11-10T04:19:54.306Z,51.50
2018-11-10T04:22:30.957Z,54.00
2018-11-10T04:25:04.592Z,55.80
2018-11-10T04:27:36.906Z,56.20
2018-11-10T04:30:10.098Z,51.80
2018-11-10T04:32:42.313Z,51.10
2018-11-10T04:35:14.666Z,52.00
2018-11-10T04:37:46.871Z,52.60
2018-11-10T04:40:19.211Z,53.50
2018-11-10T04:42:51.561Z,55.20
2018-11-10T04:45:24.210Z,56.80
2018-11-10T04:47:56.669Z,57.20
2018-11-10T04:50:29.146Z,57.40
2018-11-10T04:53:01.626Z,57.00
2018-11-10T04:55:34.072Z,57.20
2018-11-10T04:58:06.447Z,57.90
2018-11-10T05:00:38.687Z,58.50
2018-11-10T05:03:11.206Z,58.70
2018-11-10T05:05:43.797Z,58.50
2018-11-10T05:08:16.040Z,59.30
2018-11-10T05:10:48.334Z,59.60
2018-11-10T05:13:20.690Z,58.80
2018-11-10T05:15:52.864Z,58.50
2018-11-10T05:18:25.185Z,59.70
2018-11-10T05:20:57.608Z,60.10
2018-11-10T05:23:29.724Z,60.30
2018-11-10T05:26:02.202Z,59.90
2018-11-10T05:28:34.342Z,60.10
2018-11-10T05:31:06.822Z,60.00
2018-11-10T05:33:39.179Z,60.80
2018-11-10T05:36:11.029Z,59.10
2018-11-10T05:38:43.695Z,58.60
2018-11-10T05:41:15.931Z,57.40
2018-11-10T05:43:47.959Z,57.90
2018-11-10T05:46:20.235Z,57.40
2018-11-10T05:48:52.284Z,57.70
2018-11-10T05:51:24.535Z,57.70
2018-11-10T05:53:56.433Z,58.70
2018-11-10T05:56:29.329Z,59.60
2018-11-10T05:59:01.166Z,58.80
2018-11-10T06:01:33.693Z,58.00
2018-11-10T06:04:05.881Z,58.10
2018-11-10T06:06:38.069Z,57.80
2018-11-10T06:09:12.002Z,58.30
2018-11-10T06:11:43.887Z,58.70
2018-11-10T06:14:16.125Z,58.70
2018-11-10T06:16:48.500Z,58.60
2018-11-10T06:19:20.904Z,58.70
2018-11-10T06:21:53.066Z,58.30
2018-11-10T06:24:25.222Z,57.80
2018-11-10T06:26:57.042Z,57.10
2018-11-10T06:29:29.116Z,57.20
2018-11-10T06:32:07.339Z,57.40
2018-11-10T06:34:39.827Z,57.60
2018-11-10T06:37:12.649Z,57.30
2018-11-10T06:39:45.115Z,57.00
2018-11-10T06:42:17.599Z,57.30
2018-11-10T06:44:49.388Z,58.40
2018-11-10T06:47:21.131Z,57.70
2018-11-10T06:49:53.482Z,57.80
2018-11-10T06:52:25.882Z,58.40
2018-11-10T06:54:58.265Z,59.10
2018-11-10T06:57:30.710Z,58.80
2018-11-10T07:00:03.098Z,59.40
2018-11-10T07:02:35.777Z,59.60
2018-11-10T07:05:08.603Z,60.00
2018-11-10T07:07:41.463Z,60.00
2018-11-10T07:10:13.721Z,59.60
2018-11-10T07:12:45.932Z,59.70
2018-11-10T07:15:18.484Z,60.10
2018-11-10T07:17:51.680Z,59.90
2018-11-10T07:20:23.690Z,60.20
2018-11-10T07:22:56.253Z,59.80
2018-11-10T07:25:28.242Z,60.00
2018-11-10T07:28:00.861Z,60.00
2018-11-10T07:30:32.982Z,59.70
2018-11-10T07:33:05.413Z,58.80
2018-11-10T07:35:37.700Z,58.70
2018-11-10T07:38:10.122Z,58.90
2018-11-10T07:40:42.714Z,58.60
2018-11-10T07:43:15.052Z,58.00
2018-11-10T07:45:47.466Z,58.30
2018-11-10T07:48:19.866Z,59.20
2018-11-10T07:50:51.903Z,61.30
2018-11-10T07:53:24.241Z,61.40
2018-11-10T07:55:56.470Z,62.90
2018-11-10T07:58:28.799Z,63.00
2018-11-10T08:01:01.329Z,65.00
2018-11-10T08:03:33.704Z,67.40
2018-11-10T08:06:06.073Z,68.30
2018-11-10T08:08:38.430Z,68.50
2018-11-10T08:11:10.842Z,68.70
2018-11-10T08:13:43.396Z,69.10
2018-11-10T08:16:15.845Z,68.40
2018-11-10T08:18:48.508Z,68.90
2018-11-10T08:21:20.801Z,69.60
2018-11-10T08:23:53.191Z,70.70
2018-11-10T08:26:25.368Z,71.40
2018-11-10T08:28:58.473Z,71.70
2018-11-10T08:31:30.974Z,72.60
2018-11-10T08:34:03.200Z,71.60
2018-11-10T08:36:35.532Z,71.80
2018-11-10T08:39:09.427Z,71.90
2018-11-10T08:41:41.885Z,73.10
2018-11-10T08:44:14.109Z,72.80
2018-11-10T08:46:46.515Z,73.40
2018-11-10T08:49:19.125Z,74.10
2018-11-10T08:51:51.409Z,75.40
2018-11-10T08:54:23.964Z,75.20
2018-11-10T08:56:56.275Z,75.70
2018-11-10T08:59:28.434Z,76.60
2018-11-10T09:02:01.039Z,76.80
2018-11-10T09:04:33.200Z,78.00
2018-11-10T09:07:05.522Z,78.30
2018-11-10T09:09:37.979Z,78.90
2018-11-10T09:12:11.361Z,80.00
2018-11-10T09:14:43.905Z,79.70
2018-11-10T09:17:16.242Z,79.60
2018-11-10T09:19:48.751Z,79.70
2018-11-10T09:22:20.903Z,79.00
2018-11-10T09:24:53.330Z,78.90
2018-11-10T09:27:25.896Z,78.80
2018-11-10T09:29:59.497Z,79.40
2018-11-10T09:32:31.835Z,80.00
2018-11-10T09:35:04.100Z,80.90
2018-11-10T09:37:37.013Z,82.60
2018-11-10T09:40:10.300Z,84.00
2018-11-10T09:42:42.777Z,85.00
2018-11-10T09:45:16.666Z,86.30
2018-11-10T09:47:48.922Z,86.70
2018-11-10T09:50:22.726Z,87.90
2018-11-10T09:52:54.995Z,89.20
2018-11-10T09:55:27.214Z,90.40
2018-11-10T09:57:59.530Z,90.80
2018-11-10T10:00:32.972Z,91.40
2018-11-10T10:03:05.465Z,91.70
2018-11-10T10:05:38.083Z,91.90
2018-11-10T10:08:10.497Z,92.30
2018-11-10T10:10:42.931Z,92.50
2018-11-10T10:13:15.383Z,92.70
2018-11-10T10:15:47.818Z,92.70
2018-11-10T10:18:20.102Z,92.90
2018-11-10T10:20:52.498Z,93.10
2018-11-10T10:23:25.058Z,93.10
2018-11-10T10:25:57.685Z,93.20
2018-11-10T10:28:30.082Z,93.20
2018-11-10T10:31:02.396Z,93.20
2018-11-10T10:33:34.541Z,93.10
2018-11-10T10:36:06.919Z,93.00
2018-11-10T10:38:39.133Z,92.80
2018-11-10T10:41:11.779Z,92.60
2018-11-10T10:43:44.039Z,92.40
2018-11-10T10:46:18.357Z,92.20
2018-11-10T10:48:50.669Z,91.80
2018-11-10T10:51:23.113Z,91.60
2018-11-10T10:53:55.688Z,91.00
2018-11-10T10:56:28.369Z,90.90
2018-11-10T10:59:00.825Z,90.50
2018-11-10T11:01:37.779Z,90.40
2018-11-10T11:04:14.676Z,90.20
2018-11-10T11:06:47.145Z,90.00
2018-11-10T11:09:19.543Z,90.00
2018-11-10T11:11:52.126Z,89.70
2018-11-10T11:14:24.462Z,88.60
2018-11-10T11:16:57.042Z,88.00
2018-11-10T11:19:29.095Z,87.80
2018-11-10T11:22:01.571Z,86.90
2018-11-10T11:24:34.038Z,87.00
2018-11-10T11:27:06.715Z,86.20
2018-11-10T11:29:39.021Z,86.10
2018-11-10T11:32:11.406Z,85.40
2018-11-10T11:34:43.770Z,85.00
2018-11-10T11:37:16.097Z,84.70
2018-11-10T11:39:48.308Z,83.60
2018-11-10T11:42:20.881Z,83.10
2018-11-10T11:44:53.299Z,82.90
2018-11-10T11:47:25.765Z,82.70
2018-11-10T11:49:58.175Z,82.70
2018-11-10T11:52:30.479Z,83.00
2018-11-10T11:55:02.849Z,83.20
2018-11-10T11:57:35.371Z,83.00
2018-11-10T12:00:08.527Z,82.40
2018-11-10T12:02:41.022Z,82.60
2018-11-10T12:05:15.036Z,82.00
2018-11-10T12:07:47.592Z,81.80
2018-11-10T12:10:21.127Z,82.00
2018-11-10T12:12:53.439Z,81.10
2018-11-10T12:15:25.941Z,81.20
2018-11-10T12:17:58.537Z,80.70
2018-11-10T12:20:30.955Z,80.00
2018-11-10T12:23:03.261Z,79.90
2018-11-10T12:25:35.454Z,79.60
2018-11-10T12:28:07.983Z,79.40
2018-11-10T12:30:40.180Z,79.60
2018-11-10T12:33:12.567Z,79.60
2018-11-10T12:35:44.940Z,79.30
2018-11-10T12:38:17.357Z,80.00
2018-11-10T12:40:49.658Z,79.30
2018-11-10T12:43:21.869Z,79.30
2018-11-10T12:45:54.124Z,78.90
2018-11-10T12:48:26.234Z,79.10
2018-11-10T12:50:58.543Z,79.20
2018-11-10T12:53:30.958Z,78.90
2018-11-10T12:56:03.370Z,78.90
2018-11-10T12:58:35.918Z,79.00
2018-11-10T13:01:08.074Z,79.00
2018-11-10T13:03:40.455Z,78.80
2018-11-10T13:06:12.986Z,78.80
2018-11-10T13:08:45.249Z,78.90
2018-11-10T13:11:17.618Z,79.20
2018-11-10T13:13:49.716Z,79.80
2018-11-10T13:16:22.199Z,80.30
2018-11-10T13:18:54.622Z,80.30
2018-11-10T13:21:27.551Z,80.90
2018-11-10T13:24:00.040Z,81.30
2018-11-10T13:26:32.218Z,81.10
2018-11-10T13:29:04.968Z,81.00
2018-11-10T13:31:37.588Z,81.40
2018-11-10T13:34:09.919Z,81.40
2018-11-10T13:36:42.282Z,81.40
2018-11-10T13:39:14.825Z,81.40
2018-11-10T13:41:47.242Z,81.20
2018-11-10T13:44:19.539Z,81.70
2018-11-10T13:46:51.840Z,81.30
2018-11-10T13:49:24.268Z,81.20
2018-11-10T13:51:56.675Z,80.40
2018-11-10T13:54:28.772Z,80.20
2018-11-10T13:57:01.348Z,80.30
2018-11-10T13:59:33.582Z,80.20
2018-11-10T14:02:06.316Z,80.10
2018-11-10T14:04:39.322Z,79.80
2018-11-10T14:07:11.664Z,79.60
2018-11-10T14:09:44.246Z,79.10
2018-11-10T14:12:16.631Z,79.20
2018-11-10T14:14:48.773Z,79.30
2018-11-10T14:17:21.366Z,79.30
2018-11-10T14:19:53.546Z,79.10
2018-11-10T14:22:25.945Z,78.90
2018-11-10T14:24:58.259Z,78.90
2018-11-10T14:27:30.474Z,79.00
2018-11-10T14:30:03.061Z,78.70
2018-11-10T14:32:35.182Z,78.50
2018-11-10T14:35:07.880Z,78.00
2018-11-10T14:37:40.276Z,78.40
2018-11-10T14:40:14.188Z,78.40
2018-11-10T14:42:46.702Z,78.10
2018-11-10T14:45:20.115Z,78.20
2018-11-10T14:47:52.353Z,78.40
2018-11-10T14:50:24.913Z,77.70
2018-11-10T14:52:57.263Z,77.90
2018-11-10T14:55:29.702Z,78.30
2018-11-10T14:58:02.075Z,77.90
2018-11-10T15:00:34.404Z,78.20
2018-11-10T15:03:06.786Z,78.20
2018-11-10T15:05:39.123Z,78.10
2018-11-10T15:08:11.230Z,77.60
2018-11-10T15:10:43.527Z,77.40
2018-11-10T15:13:15.965Z,77.30
2018-11-10T15:15:48.253Z,76.90
2018-11-10T15:18:20.963Z,77.50
2018-11-10T15:20:53.323Z,77.90
2018-11-10T15:23:25.798Z,78.40
2018-11-10T15:25:58.387Z,78.30
2018-11-10T15:28:30.744Z,78.60
2018-11-10T15:31:02.882Z,78.00
2018-11-10T15:33:35.258Z,78.30
2018-11-10T15:36:07.658Z,78.20
2018-11-10T15:38:39.810Z,78.00
2018-11-10T15:41:12.685Z,77.50
2018-11-10T15:43:46.893Z,77.30
2018-11-10T15:46:19.149Z,77.40
2018-11-10T15:48:51.694Z,77.20
2018-11-10T15:51:24.291Z,77.20
2018-11-10T15:53:56.350Z,77.00
2018-11-10T15:56:28.800Z,77.00
2018-11-10T15:59:01.356Z,77.20
2018-11-10T16:01:33.991Z,77.30
2018-11-10T16:04:06.194Z,77.50
2018-11-10T16:06:38.613Z,77.10
2018-11-10T16:09:13.544Z,74.40
2018-11-10T16:11:46.196Z,74.00
2018-11-10T16:14:18.403Z,73.00
2018-11-10T16:16:51.304Z,71.80
2018-11-10T16:19:23.860Z,71.30
2018-11-10T16:21:56.093Z,70.40
2018-11-10T16:24:28.826Z,69.60
2018-11-10T16:27:01.258Z,68.90
2018-11-10T16:29:33.557Z,67.70
2018-11-10T16:32:05.778Z,66.70
2018-11-10T16:34:38.103Z,68.00
2018-11-10T16:37:10.614Z,66.50
2018-11-10T16:39:43.078Z,64.60
2018-11-10T16:42:15.528Z,64.60
2018-11-10T16:44:48.297Z,65.30
2018-11-10T16:47:20.408Z,64.80
2018-11-10T16:49:52.796Z,64.20
2018-11-10T16:52:25.292Z,63.80
2018-11-10T16:54:57.393Z,62.70
2018-11-10T16:57:30.172Z,61.60
2018-11-10T17:00:02.556Z,61.20
2018-11-10T17:02:34.746Z,59.10
2018-11-10T17:05:07.637Z,60.00
2018-11-10T17:07:40.387Z,58.80
2018-11-10T17:10:15.223Z,59.70
2018-11-10T17:12:47.669Z,59.30
2018-11-10T17:15:19.770Z,58.10
2018-11-10T17:17:52.337Z,57.80
2018-11-10T17:20:24.833Z,55.90
2018-11-10T17:22:57.399Z,56.40
2018-11-10T17:25:29.451Z,54.90
2018-11-10T17:28:02.243Z,56.80
2018-11-10T17:30:34.376Z,55.30
2018-11-10T17:33:06.674Z,55.70
2018-11-10T17:35:39.506Z,57.00
2018-11-10T17:38:12.294Z,55.20
2018-11-10T17:40:44.660Z,56.40
2018-11-10T17:43:17.121Z,55.30
2018-11-10T17:45:49.194Z,54.70
2018-11-10T17:48:21.647Z,53.20
2018-11-10T17:50:54.059Z,53.80
2018-11-10T17:53:26.433Z,53.70
2018-11-10T17:55:58.679Z,52.80
2018-11-10T17:58:31.199Z,53.70
2018-11-10T18:01:03.544Z,55.00
2018-11-10T18:03:35.816Z,55.40
2018-11-10T18:06:08.334Z,54.70
2018-11-10T18:08:40.898Z,54.50
2018-11-10T18:11:13.021Z,54.40
2018-11-10T18:13:45.393Z,53.80
2018-11-10T18:16:17.565Z,53.30
2018-11-10T18:18:50.059Z,52.20
2018-11-10T18:21:22.551Z,53.20
2018-11-10T18:23:55.067Z,52.10
2018-11-10T18:26:27.296Z,52.10
2018-11-10T18:28:59.619Z,51.10
2018-11-10T18:31:31.661Z,50.90
2018-11-10T18:34:03.923Z,50.50
2018-11-10T18:36:36.616Z,52.50
2018-11-10T18:39:11.399Z,50.90
2018-11-10T18:41:43.958Z,50.80
2018-11-10T18:44:16.402Z,51.50
2018-11-10T18:46:49.055Z,53.10
2018-11-10T18:49:21.451Z,52.30
2018-11-10T18:51:53.799Z,51.50
2018-11-10T18:54:26.137Z,51.30
2018-11-10T18:56:58.529Z,51.30
2018-11-10T18:59:30.655Z,47.20
2018-11-10T19:02:02.988Z,45.80
2018-11-10T19:04:35.402Z,46.80
2018-11-10T19:07:08.167Z,47.40
2018-11-10T19:09:40.974Z,45.60
2018-11-10T19:12:13.144Z,45.50
2018-11-10T19:14:45.710Z,44.90
2018-11-10T19:17:18.063Z,45.90
2018-11-10T19:19:50.316Z,45.40
2018-11-10T19:22:22.566Z,46.40
2018-11-10T19:24:54.920Z,46.20
2018-11-10T19:27:27.203Z,44.90
2018-11-10T19:29:59.575Z,44.90
2018-11-10T19:32:32.178Z,44.60
2018-11-10T19:35:04.338Z,44.20
2018-11-10T19:37:36.726Z,44.10
2018-11-10T19:40:10.048Z,44.10
2018-11-10T19:42:43.335Z,41.60
2018-11-10T19:45:15.681Z,40.10
2018-11-10T19:47:48.359Z,39.10
2018-11-10T19:50:21.144Z,40.10
2018-11-10T19:52:53.734Z,40.60
2018-11-10T19:55:26.313Z,38.50
2018-11-10T19:57:58.616Z,38.00
2018-11-10T20:00:30.663Z,37.00
2018-11-10T20:03:02.788Z,35.70
2018-11-10T20:05:35.219Z,34.70
2018-11-10T20:08:07.654Z,36.00
2018-11-10T20:10:40.555Z,35.00
2018-11-10T20:13:13.094Z,36.90
2018-11-10T20:15:45.551Z,36.80
2018-11-10T20:18:18.137Z,35.60
2018-11-10T20:20:50.292Z,37.20
2018-11-10T20:23:22.679Z,38.50
2018-11-10T20:25:55.056Z,39.80
2018-11-10T20:28:27.428Z,41.60
2018-11-10T20:31:00.006Z,39.40
2018-11-10T20:33:32.323Z,40.00
2018-11-10T20:36:04.365Z,39.20
2018-11-10T20:38:36.873Z,39.30
2018-11-10T20:41:09.784Z,39.70
2018-11-10T20:43:41.875Z,40.70
2018-11-10T20:46:14.237Z,40.90
2018-11-10T20:48:46.558Z,41.30
2018-11-10T20:51:19.090Z,40.60
2018-11-10T20:53:51.503Z,40.20
2018-11-10T20:56:23.905Z,40.40
2018-11-10T20:58:56.664Z,40.20
2018-11-10T21:01:29.184Z,40.20
2018-11-10T21:04:01.373Z,39.00
2018-11-10T21:06:33.945Z,41.50
2018-11-10T21:09:08.951Z,42.10
2018-11-10T21:11:41.454Z,40.50
2018-11-10T21:14:13.893Z,40.90
2018-11-10T21:16:46.160Z,41.30
2018-11-10T21:19:18.467Z,40.40
2018-11-10T21:21:51.035Z,41.70
2018-11-10T21:24:23.105Z,41.90
2018-11-10T21:26:55.474Z,42.30
2018-11-10T21:29:27.888Z,41.90
2018-11-10T21:32:00.100Z,42.10
2018-11-10T21:34:32.434Z,43.00
2018-11-10T21:37:04.736Z,41.70
2018-11-10T21:39:37.009Z,41.80
2018-11-10T21:42:09.321Z,42.30
2018-11-10T21:44:41.735Z,43.10
2018-11-10T21:47:14.152Z,42.60
2018-11-10T21:49:46.502Z,42.50
2018-11-10T21:52:18.883Z,41.00
2018-11-10T21:54:51.422Z,41.70
2018-11-10T21:57:23.894Z,42.60
2018-11-10T21:59:56.310Z,42.40
2018-11-10T22:02:28.703Z,42.00
2018-11-10T22:05:00.975Z,41.40
2018-11-10T22:07:33.829Z,41.80
2018-11-10T22:10:06.626Z,41.70
2018-11-10T22:12:39.281Z,40.80
2018-11-10T22:15:14.043Z,41.70
2018-11-10T22:17:47.192Z,41.60
2018-11-10T22:20:22.095Z,40.70
2018-11-10T22:22:54.222Z,39.90
2018-11-10T22:25:26.508Z,40.00
2018-11-10T22:27:58.757Z,37.50
2018-11-10T22:30:31.482Z,37.90
2018-11-10T22:33:03.857Z,37.50
2018-11-10T22:35:36.647Z,37.40
2018-11-10T22:38:09.289Z,37.10
2018-11-10T22:40:41.659Z,37.40
2018-11-10T22:43:14.085Z,36.90
2018-11-10T22:45:46.082Z,36.60
2018-11-10T22:48:18.625Z,35.40
2018-11-10T22:50:50.894Z,36.80
2018-11-10T22:53:23.268Z,36.70
2018-11-10T22:55:55.778Z,36.40
2018-11-10T22:58:28.308Z,36.10
2018-11-10T23:01:07.023Z,36.60
2018-11-10T23:03:40.787Z,35.50
2018-11-10T23:06:13.067Z,36.00
2018-11-10T23:08:45.447Z,36.00
2018-11-10T23:11:17.850Z,36.60
2018-11-10T23:13:50.260Z,36.80
2018-11-10T23:16:22.538Z,36.40
2018-11-10T23:18:54.804Z,35.90
2018-11-10T23:21:27.022Z,35.90
2018-11-10T23:23:59.222Z,35.30
2018-11-10T23:26:31.619Z,35.70
2018-11-10T23:29:04.098Z,37.00
2018-11-10T23:31:36.677Z,37.10
2018-11-10T23:34:08.989Z,37.30
2018-11-10T23:36:41.227Z,37.50
2018-11-10T23:39:14.415Z,36.90
2018-11-10T23:41:46.960Z,37.20
2018-11-10T23:44:19.558Z,37.60
2018-11-10T23:46:51.847Z,37.40
2018-11-10T23:49:24.246Z,37.40
2018-11-10T23:51:56.779Z,37.60
2018-11-10T23:54:29.101Z,37.90
2018-11-10T23:57:01.242Z,38.60
2018-11-10T23:59:33.544Z,38.40
